sensor_id;sensor_type;location;lat;lon;timestamp;pressure;altitude;pressure_sealevel;temperature;humidity
11339;BME280;5724;42.684;23.252;2023-02-15T00:01:31;95536.44;;;0.40;89.05
11339;BME280;5724;42.684;23.252;2023-02-15T00:03:57;95543.41;;;0.46;88.51
11339;BME280;5724;42.684;23.252;2023-02-15T00:06:22;95542.31;;;0.37;88.73
11339;BME280;5724;42.684;23.252;2023-02-15T00:08:48;95546.63;;;0.38;89.15
11339;BME280;5724;42.684;23.252;2023-02-15T00:11:15;95549.59;;;0.42;89.19
11339;BME280;5724;42.684;23.252;2023-02-15T00:13:41;95550.41;;;0.47;89.33
11339;BME280;5724;42.684;23.252;2023-02-15T00:16:09;95555.81;;;0.52;88.33
11339;BME280;5724;42.684;23.252;2023-02-15T00:18:36;95552.53;;;0.35;89.31
11339;BME280;5724;42.684;23.252;2023-02-15T00:21:07;95561.13;;;0.37;89.09
11339;BME280;5724;42.684;23.252;2023-02-15T00:23:34;95561.69;;;0.34;89.39
11339;BME280;5724;42.684;23.252;2023-02-15T00:26:12;95533.72;;;0.30;89.55
11339;BME280;5724;42.684;23.252;2023-02-15T00:28:38;95550.69;;;0.46;89.58
11339;BME280;5724;42.684;23.252;2023-02-15T00:31:04;95550.94;;;0.34;89.55
11339;BME280;5724;42.684;23.252;2023-02-15T00:33:30;95549.06;;;0.40;89.71
11339;BME280;5724;42.684;23.252;2023-02-15T00:36:00;95536.66;;;0.23;89.83
11339;BME280;5724;42.684;23.252;2023-02-15T00:38:29;95552.78;;;0.28;90.56
11339;BME280;5724;42.684;23.252;2023-02-15T00:40:57;95558.72;;;0.36;90.43
11339;BME280;5724;42.684;23.252;2023-02-15T00:43:22;95556.31;;;0.39;90.08
11339;BME280;5724;42.684;23.252;2023-02-15T00:45:48;95553.84;;;0.22;90.41
11339;BME280;5724;42.684;23.252;2023-02-15T00:48:14;95553.03;;;0.27;90.54
11339;BME280;5724;42.684;23.252;2023-02-15T00:50:40;95553.06;;;0.32;89.75
11339;BME280;5724;42.684;23.252;2023-02-15T00:53:05;95548.50;;;0.33;90.25
11339;BME280;5724;42.684;23.252;2023-02-15T00:55:31;95556.84;;;0.36;90.40
11339;BME280;5724;42.684;23.252;2023-02-15T00:57:56;95560.34;;;0.32;89.84
11339;BME280;5724;42.684;23.252;2023-02-15T01:00:22;95553.34;;;0.31;89.84
11339;BME280;5724;42.684;23.252;2023-02-15T01:02:47;95553.03;;;0.27;90.10
11339;BME280;5724;42.684;23.252;2023-02-15T01:05:13;95558.72;;;0.31;90.60
11339;BME280;5724;42.684;23.252;2023-02-15T01:07:38;95548.78;;;0.31;89.93
11339;BME280;5724;42.684;23.252;2023-02-15T01:10:07;95552.00;;;0.33;90.34
11339;BME280;5724;42.684;23.252;2023-02-15T01:12:33;95554.19;;;0.41;90.36
11339;BME280;5724;42.684;23.252;2023-02-15T01:14:59;95548.53;;;0.43;90.02
11339;BME280;5724;42.684;23.252;2023-02-15T01:17:25;95553.34;;;0.31;89.45
11339;BME280;5724;42.684;23.252;2023-02-15T01:19:50;95543.38;;;0.26;90.23
11339;BME280;5724;42.684;23.252;2023-02-15T01:22:17;95547.13;;;0.25;90.62
11339;BME280;5724;42.684;23.252;2023-02-15T01:24:42;95545.00;;;0.32;90.00
11339;BME280;5724;42.684;23.252;2023-02-15T01:27:08;95540.72;;;0.36;89.75
11339;BME280;5724;42.684;23.252;2023-02-15T01:29:33;95543.91;;;0.28;89.86
11339;BME280;5724;42.684;23.252;2023-02-15T01:31:59;95522.66;;;0.16;90.71
11339;BME280;5724;42.684;23.252;2023-02-15T01:34:24;95538.03;;;0.31;90.50
11339;BME280;5724;42.684;23.252;2023-02-15T01:36:50;95545.56;;;0.29;90.81
11339;BME280;5724;42.684;23.252;2023-02-15T01:39:15;95537.47;;;0.24;91.06
11339;BME280;5724;42.684;23.252;2023-02-15T01:41:40;95529.38;;;0.24;91.05
11339;BME280;5724;42.684;23.252;2023-02-15T01:44:44;95541.75;;;0.25;90.24
11339;BME280;5724;42.684;23.252;2023-02-15T01:47:14;95532.06;;;0.19;91.44
11339;BME280;5724;42.684;23.252;2023-02-15T01:49:42;95528.59;;;0.23;91.42
11339;BME280;5724;42.684;23.252;2023-02-15T01:52:13;95534.22;;;0.27;91.20
11339;BME280;5724;42.684;23.252;2023-02-15T01:54:40;95519.19;;;0.21;90.77
11339;BME280;5724;42.684;23.252;2023-02-15T01:57:11;95522.41;;;0.28;91.31
11339;BME280;5724;42.684;23.252;2023-02-15T01:59:39;95517.03;;;0.28;90.91
11339;BME280;5724;42.684;23.252;2023-02-15T02:02:09;95519.19;;;0.21;91.73
11339;BME280;5724;42.684;23.252;2023-02-15T02:04:54;95510.03;;;0.22;91.13
11339;BME280;5724;42.684;23.252;2023-02-15T02:07:29;95519.44;;;0.24;91.14
11339;BME280;5724;42.684;23.252;2023-02-15T02:09:56;95509.50;;;0.20;91.86
11339;BME280;5724;42.684;23.252;2023-02-15T02:12:23;95515.38;;;0.12;92.18
11339;BME280;5724;42.684;23.252;2023-02-15T02:14:50;95513.75;;;0.01;92.37
11339;BME280;5724;42.684;23.252;2023-02-15T02:34:12;95540.13;;;0.14;92.48
11339;BME280;5724;42.684;23.252;2023-02-15T02:39:33;95529.34;;;0.09;92.95
11339;BME280;5724;42.684;23.252;2023-02-15T02:42:12;95532.06;;;0.14;92.50
11339;BME280;5724;42.684;23.252;2023-02-15T02:44:49;95535.31;;;0.21;92.36
11339;BME280;5724;42.684;23.252;2023-02-15T02:47:28;95530.47;;;0.28;92.34
11339;BME280;5724;42.684;23.252;2023-02-15T02:50:00;95532.09;;;0.29;92.04
11339;BME280;5724;42.684;23.252;2023-02-15T02:57:43;95536.94;;;0.37;92.40
11339;BME280;5724;42.684;23.252;2023-02-15T03:00:11;95539.63;;;0.37;91.47
11339;BME280;5724;42.684;23.252;2023-02-15T03:02:40;95545.03;;;0.42;92.09
11339;BME280;5724;42.684;23.252;2023-02-15T03:05:11;95545.03;;;0.42;91.28
11339;BME280;5724;42.684;23.252;2023-02-15T03:07:39;95550.94;;;0.44;91.77
11339;BME280;5724;42.684;23.252;2023-02-15T03:10:07;95543.94;;;0.38;91.73
11339;BME280;5724;42.684;23.252;2023-02-15T03:12:36;95550.38;;;0.37;91.90
11339;BME280;5724;42.684;23.252;2023-02-15T03:15:11;95556.34;;;0.49;91.80
11339;BME280;5724;42.684;23.252;2023-02-15T03:17:45;95555.53;;;0.49;92.39
11339;BME280;5724;42.684;23.252;2023-02-15T03:20:23;95557.44;;;0.48;91.63
11339;BME280;5724;42.684;23.252;2023-02-15T03:22:59;95556.34;;;0.54;91.82
11339;BME280;5724;42.684;23.252;2023-02-15T03:25:50;95567.09;;;0.54;91.28
11339;BME280;5724;42.684;23.252;2023-02-15T03:28:25;95549.09;;;0.60;91.21
11339;BME280;5724;42.684;23.252;2023-02-15T03:30:55;95547.50;;;0.59;90.72
11339;BME280;5724;42.684;23.252;2023-02-15T03:33:26;95542.38;;;0.63;91.68
11339;BME280;5724;42.684;23.252;2023-02-15T03:38:42;95550.19;;;0.64;91.23
11339;BME280;5724;42.684;23.252;2023-02-15T03:41:11;95560.38;;;0.57;91.07
11339;BME280;5724;42.684;23.252;2023-02-15T03:43:54;95556.91;;;0.62;91.94
11339;BME280;5724;42.684;23.252;2023-02-15T03:46:28;95549.91;;;0.61;91.57
11339;BME280;5724;42.684;23.252;2023-02-15T03:49:07;95545.91;;;0.68;91.38
11339;BME280;5724;42.684;23.252;2023-02-15T03:51:37;95544.56;;;0.71;90.76
11339;BME280;5724;42.684;23.252;2023-02-15T03:56:33;95540.78;;;0.72;91.11
11339;BME280;5724;42.684;23.252;2023-02-15T03:58:59;95551.00;;;0.75;90.21
11339;BME280;5724;42.684;23.252;2023-02-15T04:02:03;95548.31;;;0.75;90.88
11339;BME280;5724;42.684;23.252;2023-02-15T04:04:34;95547.22;;;0.76;90.78
11339;BME280;5724;42.684;23.252;2023-02-15T04:07:00;95548.84;;;0.77;90.41
11339;BME280;5724;42.684;23.252;2023-02-15T04:09:26;95553.72;;;0.80;91.12
11339;BME280;5724;42.684;23.252;2023-02-15T04:12:10;95553.69;;;0.75;90.92
11339;BME280;5724;42.684;23.252;2023-02-15T04:14:36;95555.88;;;0.78;91.30
11339;BME280;5724;42.684;23.252;2023-02-15T04:17:20;95532.69;;;0.56;91.00
11339;BME280;5724;42.684;23.252;2023-02-15T04:19:45;95564.47;;;0.85;91.14
11339;BME280;5724;42.684;23.252;2023-02-15T04:22:29;95566.63;;;0.83;91.44
11339;BME280;5724;42.684;23.252;2023-02-15T04:25:13;95578.47;;;0.92;91.23
11339;BME280;5724;42.684;23.252;2023-02-15T04:27:47;95578.47;;;0.87;91.02
11339;BME280;5724;42.684;23.252;2023-02-15T04:30:14;95579.28;;;0.88;91.11
11339;BME280;5724;42.684;23.252;2023-02-15T04:32:40;95574.69;;;0.83;91.28
11339;BME280;5724;42.684;23.252;2023-02-15T04:35:06;95583.31;;;0.95;90.84
11339;BME280;5724;42.684;23.252;2023-02-15T04:37:32;95581.69;;;0.89;91.78
11339;BME280;5724;42.684;23.252;2023-02-15T04:39:58;95599.16;;;0.86;91.18
11339;BME280;5724;42.684;23.252;2023-02-15T04:42:27;95598.09;;;0.82;92.00
11339;BME280;5724;42.684;23.252;2023-02-15T04:44:53;95584.91;;;0.86;91.25
11339;BME280;5724;42.684;23.252;2023-02-15T04:47:19;95591.66;;;0.94;91.47
11339;BME280;5724;42.684;23.252;2023-02-15T04:49:45;95595.38;;;0.72;92.43
11339;BME280;5724;42.684;23.252;2023-02-15T04:52:10;95587.34;;;0.77;92.00
11339;BME280;5724;42.684;23.252;2023-02-15T04:54:36;95592.75;;;0.88;91.84
11339;BME280;5724;42.684;23.252;2023-02-15T04:57:03;95594.59;;;0.82;91.83
11339;BME280;5724;42.684;23.252;2023-02-15T04:59:28;95600.00;;;0.87;91.95
11339;BME280;5724;42.684;23.252;2023-02-15T05:01:54;95601.84;;;0.86;92.20
11339;BME280;5724;42.684;23.252;2023-02-15T05:04:22;95598.34;;;0.86;91.94
11339;BME280;5724;42.684;23.252;2023-02-15T05:06:47;95616.66;;;0.94;91.64
11339;BME280;5724;42.684;23.252;2023-02-15T05:09:13;95601.91;;;0.97;91.06
11339;BME280;5724;42.684;23.252;2023-02-15T05:11:38;95604.84;;;0.95;91.42
11339;BME280;5724;42.684;23.252;2023-02-15T05:14:04;95612.91;;;0.90;91.02
11339;BME280;5724;42.684;23.252;2023-02-15T05:16:30;95616.13;;;0.92;91.25
11339;BME280;5724;42.684;23.252;2023-02-15T05:18:55;95615.34;;;0.97;90.86
11339;BME280;5724;42.684;23.252;2023-02-15T05:21:21;95608.91;;;0.98;90.99
11339;BME280;5724;42.684;23.252;2023-02-15T05:23:46;95622.34;;;0.98;90.75
11339;BME280;5724;42.684;23.252;2023-02-15T05:26:16;95624.78;;;0.99;90.64
11339;BME280;5724;42.684;23.252;2023-02-15T05:29:20;95624.47;;;0.96;91.29
11339;BME280;5724;42.684;23.252;2023-02-15T05:31:45;95630.97;;;1.00;91.21
11339;BME280;5724;42.684;23.252;2023-02-15T05:34:12;95625.06;;;1.08;91.06
11339;BME280;5724;42.684;23.252;2023-02-15T05:36:37;95632.84;;;1.14;90.51
11339;BME280;5724;42.684;23.252;2023-02-15T05:39:03;95634.47;;;1.15;90.18
11339;BME280;5724;42.684;23.252;2023-02-15T05:41:30;95636.63;;;1.08;90.20
11339;BME280;5724;42.684;23.252;2023-02-15T05:43:56;95642.53;;;1.10;90.52
11339;BME280;5724;42.684;23.252;2023-02-15T05:46:22;95642.53;;;1.00;90.93
11339;BME280;5724;42.684;23.252;2023-02-15T05:48:47;95641.72;;;1.00;90.93
11339;BME280;5724;42.684;23.252;2023-02-15T05:51:13;95645.78;;;1.07;90.50
11339;BME280;5724;42.684;23.252;2023-02-15T05:53:40;95639.84;;;1.10;90.14
11339;BME280;5724;42.684;23.252;2023-02-15T05:56:07;95633.91;;;1.03;90.05
11339;BME280;5724;42.684;23.252;2023-02-15T05:58:38;95638.25;;;1.09;89.92
11339;BME280;5724;42.684;23.252;2023-02-15T06:01:12;95649.00;;;1.20;89.94
11339;BME280;5724;42.684;23.252;2023-02-15T06:03:38;95643.91;;;1.18;89.70
11339;BME280;5724;42.684;23.252;2023-02-15T06:06:04;95646.03;;;1.11;89.99
11339;BME280;5724;42.684;23.252;2023-02-15T06:08:31;95644.97;;;1.17;90.13
11339;BME280;5724;42.684;23.252;2023-02-15T06:10:57;95646.03;;;1.11;89.73
11339;BME280;5724;42.684;23.252;2023-02-15T06:13:22;95653.84;;;1.23;90.72
11339;BME280;5724;42.684;23.252;2023-02-15T06:15:48;95646.06;;;1.26;89.29
11339;BME280;5724;42.684;23.252;2023-02-15T06:18:13;95648.19;;;1.24;89.02
11339;BME280;5724;42.684;23.252;2023-02-15T06:20:39;95650.38;;;1.27;89.45
11339;BME280;5724;42.684;23.252;2023-02-15T06:23:04;95652.25;;;1.32;88.82
11339;BME280;5724;42.684;23.252;2023-02-15T06:25:30;95647.66;;;1.22;89.01
11339;BME280;5724;42.684;23.252;2023-02-15T06:27:55;95658.69;;;1.15;88.78
11339;BME280;5724;42.684;23.252;2023-02-15T06:30:21;95663.00;;;1.22;89.43
11339;BME280;5724;42.684;23.252;2023-02-15T06:32:46;95650.38;;;1.32;89.02
11339;BME280;5724;42.684;23.252;2023-02-15T06:35:12;95637.72;;;1.28;88.86
11339;BME280;5724;42.684;23.252;2023-02-15T06:37:38;95648.75;;;1.31;88.27
11339;BME280;5724;42.684;23.252;2023-02-15T06:40:03;95653.06;;;1.37;88.10
11339;BME280;5724;42.684;23.252;2023-02-15T06:42:29;95649.56;;;1.42;87.76
11339;BME280;5724;42.684;23.252;2023-02-15T06:44:55;95651.19;;;1.38;87.34
11339;BME280;5724;42.684;23.252;2023-02-15T06:47:20;95645.81;;;1.38;86.74
11339;BME280;5724;42.684;23.252;2023-02-15T06:49:46;95633.69;;;1.30;87.37
11339;BME280;5724;42.684;23.252;2023-02-15T06:52:11;95647.69;;;1.42;86.89
11339;BME280;5724;42.684;23.252;2023-02-15T06:54:37;95652.81;;;1.39;86.80
11339;BME280;5724;42.684;23.252;2023-02-15T06:57:02;95631.25;;;1.39;86.22
11339;BME280;5724;42.684;23.252;2023-02-15T06:59:28;95651.19;;;1.53;85.37
11339;BME280;5724;42.684;23.252;2023-02-15T07:01:53;95658.72;;;1.51;85.14
11339;BME280;5724;42.684;23.252;2023-02-15T07:04:19;95648.47;;;1.53;85.24
11339;BME280;5724;42.684;23.252;2023-02-15T07:06:44;95657.09;;;1.60;85.13
11339;BME280;5724;42.684;23.252;2023-02-15T07:09:11;95663.31;;;1.66;84.62
11339;BME280;5724;42.684;23.252;2023-02-15T07:11:38;95658.19;;;1.69;84.64
11339;BME280;5724;42.684;23.252;2023-02-15T07:14:21;95656.03;;;1.77;84.10
11339;BME280;5724;42.684;23.252;2023-02-15T07:16:47;95656.28;;;1.85;83.44
11339;BME280;5724;42.684;23.252;2023-02-15T07:19:13;95644.16;;;1.83;83.07
11339;BME280;5724;42.684;23.252;2023-02-15T07:21:38;95651.47;;;1.67;83.80
11339;BME280;5724;42.684;23.252;2023-02-15T07:24:04;95657.91;;;1.76;83.21
11339;BME280;5724;42.684;23.252;2023-02-15T07:26:31;95672.19;;;1.87;82.55
11339;BME280;5724;42.684;23.252;2023-02-15T07:28:57;95657.09;;;1.81;83.09
11339;BME280;5724;42.684;23.252;2023-02-15T07:31:22;95653.88;;;1.84;82.95
11339;BME280;5724;42.684;23.252;2023-02-15T07:33:48;95659.78;;;1.91;82.89
11339;BME280;5724;42.684;23.252;2023-02-15T07:36:14;95660.06;;;1.94;82.06
11339;BME280;5724;42.684;23.252;2023-02-15T07:38:40;95664.63;;;1.99;81.98
11339;BME280;5724;42.684;23.252;2023-02-15T07:41:10;95664.06;;;2.02;82.04
11339;BME280;5724;42.684;23.252;2023-02-15T07:43:38;95650.59;;;1.92;81.69
11339;BME280;5724;42.684;23.252;2023-02-15T07:46:09;95663.25;;;2.01;81.87
11339;BME280;5724;42.684;23.252;2023-02-15T07:48:36;95652.75;;;2.00;81.65
11339;BME280;5724;42.684;23.252;2023-02-15T07:51:03;95655.44;;;2.00;81.70
11339;BME280;5724;42.684;23.252;2023-02-15T07:53:30;95654.38;;;1.91;81.46
11339;BME280;5724;42.684;23.252;2023-02-15T07:55:59;95644.97;;;1.78;82.23
11339;BME280;5724;42.684;23.252;2023-02-15T07:58:25;95649.31;;;1.74;82.62
11339;BME280;5724;42.684;23.252;2023-02-15T08:01:11;95642.56;;;1.77;82.43
11339;BME280;5724;42.684;23.252;2023-02-15T08:03:36;95632.84;;;1.81;82.17
11339;BME280;5724;42.684;23.252;2023-02-15T08:06:02;95656.00;;;1.82;82.32
11339;BME280;5724;42.684;23.252;2023-02-15T08:08:29;95641.47;;;1.83;82.15
11339;BME280;5724;42.684;23.252;2023-02-15T08:13:50;95655.44;;;2.00;80.88
11339;BME280;5724;42.684;23.252;2023-02-15T08:16:34;95651.16;;;1.89;81.18
11339;BME280;5724;42.684;23.252;2023-02-15T08:19:03;95657.06;;;1.91;80.64
11339;BME280;5724;42.684;23.252;2023-02-15T08:21:31;95653.56;;;1.90;80.77
11339;BME280;5724;42.684;23.252;2023-02-15T08:23:57;95644.94;;;2.04;80.46
11339;BME280;5724;42.684;23.252;2023-02-15T08:26:23;95655.97;;;2.02;79.55
11339;BME280;5724;42.684;23.252;2023-02-15T08:28:50;95665.16;;;2.06;79.16
11339;BME280;5724;42.684;23.252;2023-02-15T08:31:16;95661.91;;;2.14;79.12
11339;BME280;5724;42.684;23.252;2023-02-15T08:33:44;95642.22;;;2.09;79.16
11339;BME280;5724;42.684;23.252;2023-02-15T08:36:12;95658.41;;;2.14;79.43
11339;BME280;5724;42.684;23.252;2023-02-15T08:38:38;95660.53;;;2.22;79.23
11339;BME280;5724;42.684;23.252;2023-02-15T08:41:14;95656.78;;;2.08;79.45
11339;BME280;5724;42.684;23.252;2023-02-15T08:43:41;95671.63;;;2.00;79.64
11339;BME280;5724;42.684;23.252;2023-02-15T08:46:08;95639.81;;;2.02;79.50
11339;BME280;5724;42.684;23.252;2023-02-15T08:48:35;95667.03;;;2.00;80.14
11339;BME280;5724;42.684;23.252;2023-02-15T08:51:12;95673.78;;;2.08;79.63
11339;BME280;5724;42.684;23.252;2023-02-15T08:53:39;95661.09;;;2.09;80.27
11339;BME280;5724;42.684;23.252;2023-02-15T08:56:05;95671.34;;;2.07;80.24
11339;BME280;5724;42.684;23.252;2023-02-15T08:58:31;95646.28;;;2.06;79.48
11339;BME280;5724;42.684;23.252;2023-02-15T09:00:57;95663.25;;;2.17;78.19
11339;BME280;5724;42.684;23.252;2023-02-15T09:03:23;95665.09;;;2.26;77.67
11339;BME280;5724;42.684;23.252;2023-02-15T09:05:49;95659.50;;;1.97;78.85
11339;BME280;5724;42.684;23.252;2023-02-15T09:08:14;95672.13;;;2.17;78.97
11339;BME280;5724;42.684;23.252;2023-02-15T09:10:40;95669.41;;;2.33;79.12
11339;BME280;5724;42.684;23.252;2023-02-15T09:13:05;95670.25;;;2.23;79.26
11339;BME280;5724;42.684;23.252;2023-02-15T09:15:31;95666.16;;;2.36;78.94
11339;BME280;5724;42.684;23.252;2023-02-15T09:17:57;95666.41;;;2.39;79.15
11339;BME280;5724;42.684;23.252;2023-02-15T09:20:26;95675.88;;;2.42;78.90
11339;BME280;5724;42.684;23.252;2023-02-15T09:22:53;95672.09;;;2.43;78.72
11339;BME280;5724;42.684;23.252;2023-02-15T09:25:19;95657.25;;;2.35;78.34
11339;BME280;5724;42.684;23.252;2023-02-15T09:27:45;95675.88;;;2.42;78.37
11339;BME280;5724;42.684;23.252;2023-02-15T09:30:11;95679.59;;;2.51;78.70
11339;BME280;5724;42.684;23.252;2023-02-15T09:32:37;95665.91;;;2.32;78.92
11339;BME280;5724;42.684;23.252;2023-02-15T09:35:02;95659.66;;;2.47;78.91
11339;BME280;5724;42.684;23.252;2023-02-15T09:37:30;95670.41;;;2.62;78.13
11339;BME280;5724;42.684;23.252;2023-02-15T09:39:57;95668.50;;;2.57;77.71
11339;BME280;5724;42.684;23.252;2023-02-15T09:42:43;95666.09;;;2.56;78.22
11339;BME280;5724;42.684;23.252;2023-02-15T09:50:55;95659.38;;;2.48;78.27
11339;BME280;5724;42.684;23.252;2023-02-15T09:53:54;95656.16;;;2.41;78.54
11339;BME280;5724;42.684;23.252;2023-02-15T09:56:31;95672.59;;;2.40;78.78
11339;BME280;5724;42.684;23.252;2023-02-15T09:59:14;95662.88;;;2.49;78.09
11339;BME280;5724;42.684;23.252;2023-02-15T10:10:18;95660.44;;;2.52;78.19
11339;BME280;5724;42.684;23.252;2023-02-15T10:12:59;95655.13;;;2.32;78.77
11339;BME280;5724;42.684;23.252;2023-02-15T10:18:42;95653.97;;;2.48;79.01
11339;BME280;5724;42.684;23.252;2023-02-15T10:26:45;95640.91;;;2.81;76.75
11339;BME280;5724;42.684;23.252;2023-02-15T10:31:51;95643.81;;;2.90;75.79
11339;BME280;5724;42.684;23.252;2023-02-15T10:50:47;95635.50;;;2.81;76.25
11339;BME280;5724;42.684;23.252;2023-02-15T10:59:15;95617.25;;;3.07;74.66
11339;BME280;5724;42.684;23.252;2023-02-15T11:04:40;95619.91;;;2.68;75.76
11339;BME280;5724;42.684;23.252;2023-02-15T11:09:49;95607.13;;;2.83;74.65
11339;BME280;5724;42.684;23.252;2023-02-15T11:12:19;95622.69;;;3.02;74.67
11339;BME280;5724;42.684;23.252;2023-02-15T11:14:55;95632.97;;;3.00;74.56
11339;BME280;5724;42.684;23.252;2023-02-15T11:17:33;95622.16;;;3.00;75.11
11339;BME280;5724;42.684;23.252;2023-02-15T11:22:47;95626.00;;;3.28;73.37
11339;BME280;5724;42.684;23.252;2023-02-15T11:25:27;95622.47;;;3.32;72.62
11339;BME280;5724;42.684;23.252;2023-02-15T11:27:54;95603.81;;;3.36;72.09
11339;BME280;5724;42.684;23.252;2023-02-15T11:30:23;95613.19;;;3.49;71.90
11339;BME280;5724;42.684;23.252;2023-02-15T11:32:52;95603.03;;;3.64;71.68
11339;BME280;5724;42.684;23.252;2023-02-15T11:35:32;95608.94;;;3.66;71.00
11339;BME280;5724;42.684;23.252;2023-02-15T11:38:20;95613.13;;;3.83;70.85
11339;BME280;5724;42.684;23.252;2023-02-15T11:40:53;95607.19;;;4.10;69.77
11339;BME280;5724;42.684;23.252;2023-02-15T11:43:23;95607.94;;;4.39;68.99
11339;BME280;5724;42.684;23.252;2023-02-15T11:45:51;95607.91;;;4.63;66.92
11339;BME280;5724;42.684;23.252;2023-02-15T11:48:17;95606.09;;;4.58;67.69
11339;BME280;5724;42.684;23.252;2023-02-15T11:50:44;95593.81;;;4.66;67.92
11339;BME280;5724;42.684;23.252;2023-02-15T11:53:16;95592.50;;;4.82;66.93
11339;BME280;5724;42.684;23.252;2023-02-15T11:55:44;95584.31;;;4.87;66.46
11339;BME280;5724;42.684;23.252;2023-02-15T12:01:38;95582.50;;;4.83;66.25
11339;BME280;5724;42.684;23.252;2023-02-15T12:06:54;95580.69;;;4.36;68.26
11339;BME280;5724;42.684;23.252;2023-02-15T12:09:41;95506.50;;;3.94;68.34
11339;BME280;5724;42.684;23.252;2023-02-15T12:12:28;95564.94;;;4.14;69.67
11339;BME280;5724;42.684;23.252;2023-02-15T12:14:57;95569.69;;;3.74;70.75
11339;BME280;5724;42.684;23.252;2023-02-15T12:17:52;95550.00;;;4.21;69.72
11339;BME280;5724;42.684;23.252;2023-02-15T12:22:49;95564.09;;;4.61;67.56
11339;BME280;5724;42.684;23.252;2023-02-15T12:25:35;95559.75;;;4.84;68.60
11339;BME280;5724;42.684;23.252;2023-02-15T12:28:03;95545.66;;;4.82;67.31
11339;BME280;5724;42.684;23.252;2023-02-15T12:30:32;95558.78;;;4.75;67.59
11339;BME280;5724;42.684;23.252;2023-02-15T12:33:26;95552.53;;;4.37;69.06
11339;BME280;5724;42.684;23.252;2023-02-15T12:36:06;95548.41;;;3.96;69.78
11339;BME280;5724;42.684;23.252;2023-02-15T12:38:35;95541.09;;;4.40;70.31
11339;BME280;5724;42.684;23.252;2023-02-15T12:41:03;95537.41;;;4.54;68.35
11339;BME280;5724;42.684;23.252;2023-02-15T12:43:34;95539.59;;;4.52;68.33
11339;BME280;5724;42.684;23.252;2023-02-15T12:46:22;95525.81;;;4.30;68.39
11339;BME280;5724;42.684;23.252;2023-02-15T12:49:25;95527.19;;;4.27;68.68
11339;BME280;5724;42.684;23.252;2023-02-15T12:54:50;95525.22;;;4.33;68.98
11339;BME280;5724;42.684;23.252;2023-02-15T12:57:28;95503.09;;;4.50;68.53
11339;BME280;5724;42.684;23.252;2023-02-15T12:59:57;95495.56;;;4.66;68.00
11339;BME280;5724;42.684;23.252;2023-02-15T13:02:44;95515.81;;;4.68;67.58
11339;BME280;5724;42.684;23.252;2023-02-15T13:08:18;95511.66;;;4.95;66.76
11339;BME280;5724;42.684;23.252;2023-02-15T13:11:10;95508.69;;;5.10;66.86
11339;BME280;5724;42.684;23.252;2023-02-15T13:13:58;95513.91;;;4.87;66.37
11339;BME280;5724;42.684;23.252;2023-02-15T13:16:37;95513.41;;;4.67;68.02
11339;BME280;5724;42.684;23.252;2023-02-15T13:19:12;95507.84;;;4.77;66.93
11339;BME280;5724;42.684;23.252;2023-02-15T13:21:42;95510.06;;;4.75;67.05
11339;BME280;5724;42.684;23.252;2023-02-15T13:24:20;95510.19;;;4.83;67.34
11339;BME280;5724;42.684;23.252;2023-02-15T13:26:48;95507.69;;;4.87;67.52
11339;BME280;5724;42.684;23.252;2023-02-15T13:31:49;95513.78;;;4.60;68.23
11339;BME280;5724;42.684;23.252;2023-02-15T13:34:20;95511.06;;;4.79;67.34
11339;BME280;5724;42.684;23.252;2023-02-15T13:47:59;95521.44;;;4.72;68.42
11339;BME280;5724;42.684;23.252;2023-02-15T14:01:13;95532.31;;;4.29;70.66
11339;BME280;5724;42.684;23.252;2023-02-15T14:09:07;95540.38;;;4.53;69.26
11339;BME280;5724;42.684;23.252;2023-02-15T14:11:46;95540.97;;;4.50;69.17
11339;BME280;5724;42.684;23.252;2023-02-15T14:14:41;95551.03;;;4.25;70.31
11339;BME280;5724;42.684;23.252;2023-02-15T14:20:05;95542.69;;;4.22;70.96
11339;BME280;5724;42.684;23.252;2023-02-15T14:22:44;95556.44;;;4.01;71.35
11339;BME280;5724;42.684;23.252;2023-02-15T14:25:35;95538.34;;;3.73;71.94
11339;BME280;5724;42.684;23.252;2023-02-15T14:30:34;95551.16;;;3.91;71.86
11339;BME280;5724;42.684;23.252;2023-02-15T14:35:45;95537.91;;;3.90;71.57
11339;BME280;5724;42.684;23.252;2023-02-15T14:38:32;95543.94;;;3.82;72.08
11339;BME280;5724;42.684;23.252;2023-02-15T14:41:14;95552.47;;;3.65;72.79
11339;BME280;5724;42.684;23.252;2023-02-15T14:46:58;95552.53;;;3.31;73.75
11339;BME280;5724;42.684;23.252;2023-02-15T14:49:30;95540.59;;;3.37;74.45
11339;BME280;5724;42.684;23.252;2023-02-15T14:52:00;95543.56;;;3.35;74.38
11339;BME280;5724;42.684;23.252;2023-02-15T14:59:25;95535.97;;;3.37;74.26
11339;BME280;5724;42.684;23.252;2023-02-15T15:02:00;95544.63;;;3.39;73.39
11339;BME280;5724;42.684;23.252;2023-02-15T15:07:27;95539.44;;;3.14;74.47
11339;BME280;5724;42.684;23.252;2023-02-15T15:10:07;95540.00;;;3.11;75.37
11339;BME280;5724;42.684;23.252;2023-02-15T15:12:55;95532.78;;;3.01;75.12
11339;BME280;5724;42.684;23.252;2023-02-15T15:17:58;95532.53;;;2.98;75.72
11339;BME280;5724;42.684;23.252;2023-02-15T15:20:39;95536.09;;;2.93;75.96
11339;BME280;5724;42.684;23.252;2023-02-15T15:25:41;95538.00;;;2.87;75.89
11339;BME280;5724;42.684;23.252;2023-02-15T15:28:07;95540.50;;;2.79;76.64
11339;BME280;5724;42.684;23.252;2023-02-15T15:33:25;95562.78;;;2.55;77.87
11339;BME280;5724;42.684;23.252;2023-02-15T15:39:06;95560.88;;;2.51;78.13
11339;BME280;5724;42.684;23.252;2023-02-15T15:41:48;95550.44;;;2.44;78.50
11339;BME280;5724;42.684;23.252;2023-02-15T15:50:23;95558.88;;;2.22;79.53
11339;BME280;5724;42.684;23.252;2023-02-15T15:52:54;95548.91;;;2.18;80.29
11339;BME280;5724;42.684;23.252;2023-02-15T15:55:22;95547.31;;;2.12;80.12
11339;BME280;5724;42.684;23.252;2023-02-15T15:57:53;95544.38;;;2.13;80.03
11339;BME280;5724;42.684;23.252;2023-02-15T16:02:58;95549.19;;;2.16;79.93
11339;BME280;5724;42.684;23.252;2023-02-15T16:05:24;95546.53;;;2.06;80.42
11339;BME280;5724;42.684;23.252;2023-02-15T16:07:50;95550.34;;;2.00;80.74
11339;BME280;5724;42.684;23.252;2023-02-15T16:10:35;95554.94;;;1.94;81.00
11339;BME280;5724;42.684;23.252;2023-02-15T16:13:04;95550.13;;;1.86;81.50
11339;BME280;5724;42.684;23.252;2023-02-15T16:15:43;95547.41;;;1.81;81.74
11339;BME280;5724;42.684;23.252;2023-02-15T16:18:18;95554.72;;;1.76;82.41
11339;BME280;5724;42.684;23.252;2023-02-15T16:21:29;95561.44;;;1.73;82.24